createdAt,value
2023-05-04T00:02:01.967Z,99.90
2023-05-04T00:04:30.140Z,99.90
2023-05-04T00:06:58.148Z,99.90
2023-05-04T00:09:26.258Z,99.90
2023-05-04T00:11:54.333Z,99.90
2023-05-04T00:14:23.714Z,99.90
2023-05-04T00:16:51.713Z,99.90
2023-05-04T00:19:19.872Z,99.90
2023-05-04T00:21:47.982Z,99.90
2023-05-04T00:24:16.030Z,99.90
2023-05-04T00:26:45.535Z,99.90
2023-05-04T00:29:13.728Z,99.90
2023-05-04T00:31:43.098Z,99.90
2023-05-04T00:34:11.162Z,99.90
2023-05-04T00:36:39.472Z,99.90
2023-05-04T00:39:07.455Z,99.90
2023-05-04T00:41:35.651Z,99.90
2023-05-04T00:44:04.651Z,99.90
2023-05-04T00:46:33.430Z,99.90
2023-05-04T00:49:03.021Z,99.90
2023-05-04T00:51:31.909Z,99.90
2023-05-04T00:54:00.270Z,99.90
2023-05-04T00:56:29.876Z,99.90
2023-05-04T00:58:59.085Z,99.90
2023-05-04T01:01:27.247Z,99.90
2023-05-04T01:03:57.098Z,99.90
2023-05-04T01:06:37.151Z,99.90
2023-05-04T01:09:16.481Z,99.90
2023-05-04T01:11:51.265Z,99.90
2023-05-04T01:14:22.400Z,99.90
2023-05-04T01:16:54.474Z,99.90
2023-05-04T01:19:22.846Z,99.90
2023-05-04T01:21:52.206Z,99.90
2023-05-04T01:24:27.204Z,99.90
2023-05-04T01:27:02.415Z,99.90
2023-05-04T01:29:39.719Z,99.90
2023-05-04T01:32:09.090Z,99.90
2023-05-04T01:34:38.965Z,99.90
2023-05-04T01:37:09.625Z,99.90
2023-05-04T01:39:37.648Z,99.90
2023-05-04T01:42:07.356Z,99.90
2023-05-04T01:44:35.464Z,99.90
2023-05-04T01:47:03.577Z,99.90
2023-05-04T01:49:31.657Z,99.90
2023-05-04T01:51:59.774Z,99.90
2023-05-04T01:54:29.171Z,99.90
2023-05-04T01:56:57.445Z,99.90
2023-05-04T01:59:25.488Z,99.90
2023-05-04T02:01:53.661Z,99.90
2023-05-04T02:04:21.739Z,99.90
2023-05-04T02:06:49.757Z,99.90
2023-05-04T02:09:17.954Z,99.90
2023-05-04T02:11:47.347Z,99.90
2023-05-04T02:14:15.459Z,99.90
2023-05-04T02:16:43.496Z,99.90
2023-05-04T02:19:11.621Z,99.90
2023-05-04T02:21:42.068Z,99.90
2023-05-04T02:24:10.268Z,99.90
2023-05-04T02:26:38.275Z,99.90
2023-05-04T02:29:07.652Z,99.90
2023-05-04T02:31:35.757Z,99.90
2023-05-04T02:34:03.918Z,99.90
2023-05-04T02:36:32.006Z,99.90
2023-05-04T02:39:00.576Z,99.90
2023-05-04T02:41:28.693Z,99.90
2023-05-04T02:43:56.765Z,99.90
2023-05-04T02:46:26.894Z,99.90
2023-05-04T02:48:54.855Z,99.90
2023-05-04T02:51:22.891Z,99.90
2023-05-04T02:53:51.082Z,99.90
2023-05-04T02:56:19.289Z,99.90
2023-05-04T02:58:47.340Z,99.90
2023-05-04T03:01:15.391Z,99.90
2023-05-04T03:03:44.888Z,99.90
2023-05-04T03:06:12.981Z,99.90
2023-05-04T03:08:40.961Z,99.90
2023-05-04T03:11:09.032Z,99.90
2023-05-04T03:13:37.036Z,99.90
2023-05-04T03:16:06.416Z,99.90
2023-05-04T03:21:21.588Z,99.90
2023-05-04T03:23:49.608Z,99.90
2023-05-04T03:26:17.689Z,99.90
2023-05-04T03:28:45.725Z,99.90
2023-05-04T03:31:14.100Z,99.90
2023-05-04T03:33:42.224Z,99.90
2023-05-04T03:36:10.236Z,99.90
2023-05-04T03:38:39.622Z,99.90
2023-05-04T03:41:07.676Z,99.90
2023-05-04T03:43:35.665Z,99.90
2023-05-04T03:46:03.776Z,99.90
2023-05-04T03:48:31.787Z,99.90
2023-05-04T03:50:59.826Z,99.90
2023-05-04T03:53:27.969Z,99.90
2023-05-04T03:55:57.351Z,99.90
2023-05-04T03:58:25.405Z,99.90
2023-05-04T04:00:53.469Z,99.90
2023-05-04T04:03:21.947Z,99.90
2023-05-04T04:05:50.220Z,99.90
2023-05-04T04:08:18.285Z,99.90
2023-05-04T04:10:46.389Z,99.90
2023-05-04T04:13:15.896Z,99.90
2023-05-04T04:15:45.643Z,99.90
2023-05-04T04:18:13.857Z,99.90
2023-05-04T04:20:42.042Z,99.90
2023-05-04T04:23:10.061Z,99.90
2023-05-04T04:25:38.370Z,99.90
2023-05-04T04:28:06.422Z,99.90
2023-05-04T04:30:35.822Z,99.90
2023-05-04T04:33:03.878Z,99.90
2023-05-04T04:35:32.690Z,99.90
2023-05-04T04:38:03.394Z,99.90
2023-05-04T04:40:32.040Z,99.90
2023-05-04T04:43:00.051Z,99.90
2023-05-04T04:45:28.605Z,99.90
2023-05-04T04:47:58.054Z,99.90
2023-05-04T04:50:26.281Z,99.90
2023-05-04T04:52:54.292Z,99.90
2023-05-04T04:55:23.896Z,99.90
2023-05-04T04:57:52.293Z,99.90
2023-05-04T05:00:22.642Z,99.90
2023-05-04T05:02:50.824Z,99.90
2023-05-04T05:05:20.326Z,99.90
2023-05-04T05:07:57.593Z,99.90
2023-05-04T05:10:25.781Z,99.90
2023-05-04T05:12:53.880Z,99.90
2023-05-04T05:15:22.030Z,99.90
2023-05-04T05:17:50.122Z,99.90
2023-05-04T05:20:18.305Z,99.90
2023-05-04T05:22:47.682Z,99.90
2023-05-04T05:25:16.155Z,99.90
2023-05-04T05:27:44.232Z,99.90
2023-05-04T05:30:13.042Z,99.90
2023-05-04T05:32:41.223Z,99.90
2023-05-04T05:35:10.414Z,99.90
2023-05-04T05:37:38.428Z,99.90
2023-05-04T05:40:09.470Z,99.90
2023-05-04T05:42:37.734Z,99.90
2023-05-04T05:45:08.007Z,99.90
2023-05-04T05:47:36.851Z,99.90
2023-05-04T05:50:05.342Z,99.90
2023-05-04T05:52:33.760Z,99.90
2023-05-04T05:55:02.798Z,99.90
2023-05-04T05:57:32.447Z,99.90
2023-05-04T06:00:00.694Z,99.90
2023-05-04T06:02:28.810Z,99.90
2023-05-04T06:04:56.966Z,99.90
2023-05-04T06:07:25.243Z,99.90
2023-05-04T06:09:53.317Z,99.90
2023-05-04T06:12:21.476Z,99.90
2023-05-04T06:14:50.880Z,99.90
2023-05-04T06:17:19.225Z,99.90
2023-05-04T06:19:50.750Z,99.90
2023-05-04T06:22:19.058Z,99.90
2023-05-04T06:24:47.562Z,99.90
2023-05-04T06:27:15.644Z,99.90
2023-05-04T06:29:43.702Z,99.90
2023-05-04T06:32:13.217Z,99.90
2023-05-04T06:34:41.272Z,99.90
2023-05-04T06:37:09.671Z,99.90
2023-05-04T06:39:37.839Z,99.90
2023-05-04T06:42:06.348Z,99.90
2023-05-04T06:44:37.861Z,99.90
2023-05-04T06:47:07.441Z,99.90
2023-05-04T06:49:37.108Z,99.90
2023-05-04T06:52:05.342Z,99.90
2023-05-04T06:54:33.688Z,99.90
2023-05-04T06:57:03.377Z,99.90
2023-05-04T06:59:31.433Z,99.90
2023-05-04T07:01:59.779Z,99.90
2023-05-04T07:04:27.884Z,99.90
2023-05-04T07:06:57.275Z,99.90
2023-05-04T07:09:25.380Z,99.90
2023-05-04T07:11:53.521Z,99.90
2023-05-04T07:14:21.867Z,99.90
2023-05-04T07:16:50.230Z,99.90
2023-05-04T07:19:18.443Z,99.90
2023-05-04T07:21:47.451Z,99.90
2023-05-04T07:24:16.907Z,99.90
2023-05-04T07:26:45.043Z,99.90
2023-05-04T07:29:13.192Z,99.90
2023-05-04T07:31:41.492Z,99.90
2023-05-04T07:34:09.607Z,99.90
2023-05-04T07:36:37.638Z,99.90
2023-05-04T07:39:05.723Z,99.90
2023-05-04T07:41:35.110Z,99.90
2023-05-04T07:44:05.646Z,99.90
2023-05-04T07:46:33.866Z,99.90
2023-05-04T07:49:03.280Z,99.90
2023-05-04T07:51:31.768Z,99.90
2023-05-04T07:53:59.889Z,99.90
2023-05-04T07:56:27.958Z,99.90
2023-05-04T07:58:57.343Z,99.90
2023-05-04T08:01:26.199Z,99.90
2023-05-04T08:03:54.295Z,99.90
2023-05-04T08:06:22.339Z,99.90
2023-05-04T08:08:52.733Z,99.90
2023-05-04T08:11:21.415Z,98.60
2023-05-04T08:13:50.618Z,99.70
2023-05-04T08:16:20.030Z,98.60
2023-05-04T08:18:48.041Z,99.60
2023-05-04T08:21:16.077Z,98.80
2023-05-04T08:23:44.166Z,98.50
2023-05-04T08:26:12.162Z,98.80
2023-05-04T08:28:40.858Z,98.40
2023-05-04T08:31:09.136Z,98.60
2023-05-04T08:33:38.534Z,98.00
2023-05-04T08:36:08.021Z,96.20
2023-05-04T08:38:36.212Z,96.40
2023-05-04T08:41:04.682Z,96.00
2023-05-04T08:43:35.618Z,94.10
2023-05-04T08:46:04.951Z,94.30
2023-05-04T08:48:34.597Z,96.20
2023-05-04T08:51:04.742Z,96.50
2023-05-04T08:53:33.736Z,95.10
2023-05-04T08:56:04.575Z,95.90
2023-05-04T08:58:37.988Z,94.70
2023-05-04T09:01:08.519Z,95.50
2023-05-04T09:03:36.939Z,95.50
2023-05-04T09:06:09.168Z,95.10
2023-05-04T09:08:37.427Z,94.90
2023-05-04T09:11:05.640Z,93.60
2023-05-04T09:13:34.111Z,94.50
2023-05-04T09:16:03.962Z,94.60
2023-05-04T09:18:39.962Z,93.50
2023-05-04T09:21:09.748Z,93.60
2023-05-04T09:23:47.771Z,93.70
2023-05-04T09:26:16.383Z,93.40
2023-05-04T09:28:45.191Z,92.20
2023-05-04T09:31:13.323Z,92.60
2023-05-04T09:33:41.605Z,93.20
2023-05-04T09:36:18.692Z,92.80
2023-05-04T09:38:46.664Z,92.80
2023-05-04T09:41:14.895Z,91.80
2023-05-04T09:43:44.885Z,91.60
2023-05-04T09:46:19.626Z,91.10
2023-05-04T09:48:54.100Z,91.90
2023-05-04T09:51:24.985Z,91.10
2023-05-04T09:53:54.041Z,91.60
2023-05-04T09:56:31.760Z,92.00
2023-05-04T09:59:00.350Z,80.20
2023-05-04T10:01:30.065Z,82.00
2023-05-04T10:03:58.562Z,86.40
2023-05-04T10:06:30.139Z,85.30
2023-05-04T10:09:00.593Z,87.90
2023-05-04T10:11:29.727Z,87.80
2023-05-04T10:13:57.996Z,86.50
2023-05-04T10:16:34.663Z,82.90
2023-05-04T10:19:21.128Z,79.90
2023-05-04T10:22:04.045Z,78.40
2023-05-04T10:24:50.476Z,82.90
2023-05-04T10:27:20.132Z,82.80
2023-05-04T10:29:51.462Z,80.60
2023-05-04T10:32:20.822Z,79.80
2023-05-04T10:34:49.772Z,78.40
2023-05-04T10:37:20.471Z,78.60
2023-05-04T10:39:57.253Z,75.40
2023-05-04T10:42:25.597Z,73.20
2023-05-04T10:44:55.234Z,72.40
2023-05-04T10:47:32.429Z,74.60
2023-05-04T10:50:05.212Z,77.90
2023-05-04T10:52:46.188Z,75.60
2023-05-04T10:55:14.745Z,76.40
2023-05-04T10:57:50.709Z,78.50
2023-05-04T11:00:19.884Z,74.20
2023-05-04T11:02:48.872Z,77.90
2023-05-04T11:05:20.198Z,76.50
2023-05-04T11:07:53.401Z,75.90
2023-05-04T11:10:23.495Z,73.70
2023-05-04T11:12:51.656Z,72.80
2023-05-04T11:15:20.178Z,68.80
2023-05-04T11:17:49.252Z,70.40
2023-05-04T11:20:24.636Z,76.20
2023-05-04T11:22:54.379Z,71.50
2023-05-04T11:25:28.668Z,71.30
2023-05-04T11:27:57.488Z,71.10
2023-05-04T11:30:32.923Z,70.90
2023-05-04T11:33:02.001Z,72.00
2023-05-04T11:35:30.122Z,75.80
2023-05-04T11:38:00.019Z,67.50
2023-05-04T11:40:28.685Z,73.80
2023-05-04T11:42:58.494Z,72.40
2023-05-04T11:45:31.024Z,68.20
2023-05-04T11:47:59.645Z,69.00
2023-05-04T11:50:28.951Z,71.20
2023-05-04T11:53:08.977Z,72.70
2023-05-04T11:55:38.143Z,68.20
2023-05-04T11:58:07.526Z,73.20
2023-05-04T12:00:38.820Z,72.70
2023-05-04T12:03:08.368Z,69.90
2023-05-04T12:05:37.665Z,74.80
2023-05-04T12:08:12.387Z,71.10
2023-05-04T12:10:41.387Z,70.70
2023-05-04T12:13:17.700Z,70.20
2023-05-04T12:15:46.015Z,72.70
2023-05-04T12:18:22.936Z,66.20
2023-05-04T12:20:50.977Z,68.50
2023-05-04T12:23:20.364Z,71.40
2023-05-04T12:25:57.768Z,69.10
2023-05-04T12:28:27.750Z,70.40
2023-05-04T12:30:55.830Z,70.00
2023-05-04T12:33:24.092Z,71.20
2023-05-04T12:35:52.173Z,66.90
2023-05-04T12:38:21.753Z,71.30
2023-05-04T12:40:50.003Z,68.60
2023-05-04T12:43:20.915Z,69.60
2023-05-04T12:45:49.253Z,69.60
2023-05-04T12:48:17.374Z,70.30
2023-05-04T12:50:45.925Z,69.50
2023-05-04T12:53:14.129Z,71.40
2023-05-04T12:55:43.745Z,71.90
2023-05-04T12:58:11.874Z,71.70
2023-05-04T13:00:40.338Z,72.50
2023-05-04T13:03:08.711Z,71.20
2023-05-04T13:05:37.021Z,73.20
2023-05-04T13:08:05.289Z,68.50
2023-05-04T13:10:33.560Z,71.80
2023-05-04T13:13:04.810Z,72.60
2023-05-04T13:15:33.130Z,74.50
2023-05-04T13:18:01.613Z,73.40
2023-05-04T13:20:29.624Z,75.00
2023-05-04T13:22:58.593Z,70.50
2023-05-04T13:25:27.072Z,69.10
2023-05-04T13:27:55.299Z,70.10
2023-05-04T13:30:24.742Z,72.10
2023-05-04T13:32:52.753Z,74.80
2023-05-04T13:35:21.165Z,73.30
2023-05-04T13:37:49.221Z,73.40
2023-05-04T13:40:17.346Z,74.30
2023-05-04T13:42:45.371Z,69.50
2023-05-04T13:45:13.566Z,72.80
2023-05-04T13:47:42.999Z,74.80
2023-05-04T13:50:11.584Z,72.40
2023-05-04T13:52:39.749Z,73.10
2023-05-04T13:55:08.551Z,75.40
2023-05-04T13:57:36.678Z,74.10
2023-05-04T14:00:08.154Z,72.50
2023-05-04T14:02:38.879Z,69.30
2023-05-04T14:05:09.186Z,70.80
2023-05-04T14:07:37.598Z,71.00
2023-05-04T14:10:06.358Z,75.00
2023-05-04T14:12:34.806Z,73.20
2023-05-04T14:15:04.453Z,72.60
2023-05-04T14:17:32.677Z,72.20
2023-05-04T14:20:00.846Z,73.70
2023-05-04T14:22:30.853Z,72.90
2023-05-04T14:24:59.031Z,73.80
2023-05-04T14:27:27.512Z,74.80
2023-05-04T14:29:55.556Z,71.30
2023-05-04T14:32:24.405Z,73.50
2023-05-04T14:34:52.399Z,71.00
2023-05-04T14:37:20.391Z,72.10
2023-05-04T14:39:49.691Z,71.60
2023-05-04T14:42:17.727Z,71.60
2023-05-04T14:44:45.671Z,73.80
2023-05-04T14:47:13.780Z,72.60
2023-05-04T14:49:42.958Z,71.80
2023-05-04T14:52:11.303Z,72.20
2023-05-04T14:54:39.337Z,70.80
2023-05-04T14:57:09.350Z,69.10
2023-05-04T14:59:37.801Z,70.00
2023-05-04T15:02:06.643Z,72.50
2023-05-04T15:04:34.921Z,73.10
2023-05-04T15:07:03.759Z,72.60
2023-05-04T15:09:31.775Z,71.30
2023-05-04T15:11:59.779Z,70.50
2023-05-04T15:14:29.249Z,72.20
2023-05-04T15:16:59.921Z,69.90
2023-05-04T15:19:27.912Z,72.10
2023-05-04T15:21:55.936Z,70.30
2023-05-04T15:24:23.987Z,70.60
2023-05-04T15:26:52.074Z,71.20
2023-05-04T15:29:20.043Z,71.70
2023-05-04T15:31:49.468Z,70.30
2023-05-04T15:34:18.628Z,71.20
2023-05-04T15:36:46.907Z,71.30
2023-05-04T15:39:14.967Z,71.70
2023-05-04T15:41:43.437Z,71.60
2023-05-04T15:44:11.530Z,70.10
2023-05-04T15:46:39.655Z,68.10
2023-05-04T15:49:09.233Z,69.30
2023-05-04T15:51:37.223Z,69.70
2023-05-04T15:54:05.515Z,71.10
2023-05-04T15:56:33.590Z,70.90
2023-05-04T15:59:01.559Z,70.00
2023-05-04T16:01:29.704Z,70.60
2023-05-04T16:03:59.619Z,69.90
2023-05-04T16:06:29.192Z,70.60
2023-05-04T16:08:57.186Z,71.00
2023-05-04T16:11:25.247Z,71.50
2023-05-04T16:13:53.349Z,69.90
2023-05-04T16:16:21.443Z,70.00
2023-05-04T16:18:49.459Z,71.40
2023-05-04T16:21:17.526Z,70.10
2023-05-04T16:23:46.974Z,69.80
2023-05-04T16:26:14.998Z,70.40
2023-05-04T16:28:43.037Z,71.30
2023-05-04T16:31:12.107Z,70.90
2023-05-04T16:33:41.427Z,70.50
2023-05-04T16:36:10.354Z,71.90
2023-05-04T16:38:38.357Z,70.60
2023-05-04T16:41:07.760Z,71.20
2023-05-04T16:43:35.664Z,71.40
2023-05-04T16:46:04.557Z,71.00
2023-05-04T16:48:32.662Z,71.00
2023-05-04T16:51:00.561Z,70.60
2023-05-04T16:53:28.473Z,69.40
2023-05-04T16:55:56.389Z,69.10
2023-05-04T16:58:26.884Z,70.40
2023-05-04T17:00:55.449Z,69.70
2023-05-04T17:03:23.478Z,70.40
2023-05-04T17:05:51.716Z,70.70
2023-05-04T17:08:19.697Z,71.90
2023-05-04T17:10:47.725Z,71.80
2023-05-04T17:13:15.869Z,72.40
2023-05-04T17:15:45.512Z,71.70
2023-05-04T17:18:13.541Z,72.50
2023-05-04T17:20:41.511Z,71.30
2023-05-04T17:23:09.498Z,71.00
2023-05-04T17:25:37.665Z,70.90
2023-05-04T17:28:06.028Z,71.30
2023-05-04T17:30:35.718Z,71.60
2023-05-04T17:33:05.249Z,72.10
2023-05-04T17:35:33.566Z,73.70
2023-05-04T17:38:01.592Z,73.60
2023-05-04T17:40:29.679Z,73.40
2023-05-04T17:42:58.031Z,74.10
2023-05-04T17:45:26.368Z,74.20
2023-05-04T17:47:54.720Z,75.00
2023-05-04T17:50:24.540Z,73.90
2023-05-04T17:52:53.794Z,74.30
2023-05-04T17:55:23.565Z,73.80
2023-05-04T17:57:52.972Z,74.10
2023-05-04T18:00:21.920Z,73.70
2023-05-04T18:02:50.042Z,74.60
2023-05-04T18:05:18.204Z,74.80
2023-05-04T18:07:47.773Z,74.30
2023-05-04T18:10:15.732Z,74.80
2023-05-04T18:12:43.837Z,74.50
2023-05-04T18:15:12.140Z,74.30
2023-05-04T18:17:40.397Z,75.60
2023-05-04T18:20:10.550Z,75.60
2023-05-04T18:22:38.804Z,75.60
2023-05-04T18:25:09.585Z,75.60
2023-05-04T18:27:38.136Z,76.10
2023-05-04T18:30:08.487Z,76.20
2023-05-04T18:32:37.007Z,76.90
2023-05-04T18:35:05.325Z,78.50
2023-05-04T18:37:33.349Z,78.20
2023-05-04T18:40:01.419Z,78.80
2023-05-04T18:42:30.758Z,79.00
2023-05-04T18:44:58.872Z,80.00
2023-05-04T18:47:26.957Z,80.40
2023-05-04T18:49:56.385Z,81.60
2023-05-04T18:52:24.462Z,82.90
2023-05-04T18:54:52.702Z,82.70
2023-05-04T18:57:20.732Z,84.30
2023-05-04T18:59:50.080Z,85.30
2023-05-04T19:02:18.580Z,86.40
2023-05-04T19:04:47.156Z,86.80
2023-05-04T19:07:15.736Z,87.20
2023-05-04T19:09:45.382Z,88.70
2023-05-04T19:12:14.180Z,88.30
2023-05-04T19:14:43.892Z,88.30
2023-05-04T19:17:14.717Z,89.60
2023-05-04T19:19:42.771Z,89.50
2023-05-04T19:22:11.621Z,89.60
2023-05-04T19:24:40.017Z,90.20
2023-05-04T19:27:08.381Z,90.30
2023-05-04T19:29:36.467Z,90.30
2023-05-04T19:32:15.849Z,90.30
2023-05-04T19:34:52.832Z,90.40
2023-05-04T19:37:20.984Z,90.80
2023-05-04T19:39:49.036Z,91.10
2023-05-04T19:42:17.116Z,90.90
2023-05-04T19:44:45.153Z,91.20
2023-05-04T19:47:13.334Z,91.50
2023-05-04T19:49:41.335Z,91.70
2023-05-04T19:52:10.697Z,92.20
2023-05-04T19:54:41.259Z,91.60
2023-05-04T19:57:10.035Z,92.10
2023-05-04T19:59:38.137Z,92.50
2023-05-04T20:02:07.034Z,92.80
2023-05-04T20:04:35.088Z,92.80
2023-05-04T20:07:03.331Z,93.00
2023-05-04T20:09:32.721Z,92.90
2023-05-04T20:12:01.172Z,93.00
2023-05-04T20:14:29.176Z,93.20
2023-05-04T20:16:57.448Z,93.60
2023-05-04T20:19:25.926Z,93.90
2023-05-04T20:21:54.156Z,93.90
2023-05-04T20:24:22.353Z,93.70
2023-05-04T20:26:51.789Z,93.90
2023-05-04T20:29:19.921Z,94.10
2023-05-04T20:31:47.982Z,94.30
2023-05-04T20:34:18.275Z,94.30
2023-05-04T20:36:47.242Z,94.30
2023-05-04T20:39:15.800Z,94.60
2023-05-04T20:41:43.830Z,95.00
2023-05-04T20:44:13.645Z,95.10
2023-05-04T20:46:41.735Z,95.00
2023-05-04T20:49:10.102Z,95.10
2023-05-04T20:51:38.240Z,95.10
2023-05-04T20:54:06.335Z,95.40
2023-05-04T20:56:34.514Z,95.40
2023-05-04T20:59:02.532Z,95.60
2023-05-04T21:01:31.941Z,96.00
2023-05-04T21:04:00.247Z,96.10
2023-05-04T21:06:28.591Z,96.40
2023-05-04T21:08:57.257Z,96.80
2023-05-04T21:11:25.362Z,96.60
2023-05-04T21:13:53.694Z,96.90
2023-05-04T21:16:21.725Z,97.40
2023-05-04T21:18:51.405Z,97.70
2023-05-04T21:21:19.558Z,97.20
2023-05-04T21:23:47.515Z,97.30
2023-05-04T21:26:15.897Z,97.60
2023-05-04T21:28:43.895Z,98.30
2023-05-04T21:31:12.043Z,98.40
2023-05-04T21:33:40.152Z,98.50
2023-05-04T21:36:20.178Z,98.10
2023-05-04T21:38:48.374Z,98.70
2023-05-04T21:41:17.436Z,98.40
2023-05-04T21:43:45.483Z,98.60
2023-05-04T21:46:13.814Z,99.20
2023-05-04T21:48:41.978Z,99.40
2023-05-04T21:51:10.062Z,99.70
2023-05-04T21:53:39.504Z,99.70
2023-05-04T21:56:08.954Z,99.70
2023-05-04T21:58:39.582Z,99.90
2023-05-04T22:01:08.118Z,99.90
2023-05-04T22:03:36.416Z,99.90
2023-05-04T22:06:04.811Z,99.90
2023-05-04T22:08:32.873Z,99.90
2023-05-04T22:11:02.531Z,99.90
2023-05-04T22:13:30.787Z,99.90
2023-05-04T22:15:58.818Z,99.90
2023-05-04T22:18:26.869Z,99.90
2023-05-04T22:20:54.906Z,99.90
2023-05-04T22:23:22.895Z,99.90
2023-05-04T22:25:51.124Z,99.90
2023-05-04T22:28:20.881Z,99.90
2023-05-04T22:30:48.941Z,99.90
2023-05-04T22:33:17.026Z,99.90
2023-05-04T22:35:44.981Z,99.90
2023-05-04T22:38:14.337Z,99.90
2023-05-04T22:40:43.700Z,99.90
2023-05-04T22:43:11.784Z,99.90
2023-05-04T22:45:41.190Z,99.90
2023-05-04T22:48:09.289Z,99.90
2023-05-04T22:50:37.270Z,99.90
2023-05-04T22:53:05.351Z,99.90
2023-05-04T22:55:33.424Z,99.90
2023-05-04T22:58:01.373Z,99.90
2023-05-04T23:00:30.233Z,99.90
2023-05-04T23:02:59.992Z,99.90
2023-05-04T23:05:28.057Z,99.90
2023-05-04T23:07:56.122Z,99.90
2023-05-04T23:10:24.286Z,99.90
2023-05-04T23:12:52.279Z,99.90
2023-05-04T23:15:20.524Z,99.90
2023-05-04T23:17:48.601Z,99.90
2023-05-04T23:20:18.080Z,99.90
2023-05-04T23:22:46.451Z,99.90
2023-05-04T23:25:14.460Z,99.90
2023-05-04T23:27:42.495Z,99.90
2023-05-04T23:30:10.957Z,99.90
2023-05-04T23:32:39.104Z,99.90
2023-05-04T23:35:08.226Z,99.90
2023-05-04T23:37:37.594Z,99.90
2023-05-04T23:40:06.891Z,99.90
2023-05-04T23:42:35.024Z,99.90
2023-05-04T23:45:03.011Z,99.90
2023-05-04T23:47:31.063Z,99.90
2023-05-04T23:49:59.212Z,99.90
2023-05-04T23:52:27.233Z,99.90
2023-05-04T23:54:56.615Z,99.90
2023-05-04T23:57:24.793Z,99.90
2023-05-04T23:59:53.964Z,99.90
